createdAt,value
2019-04-13T00:00:16.270Z,18.80
2019-04-13T00:02:45.534Z,21.35
2019-04-13T00:05:15.761Z,23.47
2019-04-13T00:07:45.745Z,25.20
2019-04-13T00:10:15.917Z,21.68
2019-04-13T00:12:44.409Z,19.90
2019-04-13T00:15:14.522Z,23.80
2019-04-13T00:17:43.091Z,23.17
2019-04-13T00:20:11.677Z,24.32
2019-04-13T00:22:40.285Z,26.13
2019-04-13T00:25:08.921Z,25.57
2019-04-13T00:27:37.418Z,24.85
2019-04-13T00:30:07.491Z,25.43
2019-04-13T00:32:35.995Z,25.90
2019-04-13T00:35:05.749Z,26.75
2019-04-13T00:37:34.324Z,23.87
2019-04-13T00:40:03.251Z,24.00
2019-04-13T00:42:31.716Z,22.52
2019-04-13T00:45:00.211Z,23.75
2019-04-13T00:47:28.676Z,30.65
2019-04-13T00:49:57.177Z,22.15
2019-04-13T00:52:25.645Z,23.77
2019-04-13T00:54:54.135Z,24.77
2019-04-13T00:57:22.600Z,23.52
2019-04-13T00:59:51.090Z,25.82
2019-04-13T01:02:19.620Z,29.33
2019-04-13T01:04:53.751Z,24.98
2019-04-13T01:07:18.900Z,22.50
2019-04-13T01:09:47.430Z,26.62
2019-04-13T01:12:15.936Z,25.07
2019-04-13T01:14:44.434Z,22.37
2019-04-13T01:17:12.903Z,27.47
2019-04-13T01:19:41.405Z,29.37
2019-04-13T01:22:09.865Z,26.10
2019-04-13T01:24:38.354Z,27.43
2019-04-13T01:27:06.819Z,26.37
2019-04-13T01:29:35.313Z,24.43
2019-04-13T01:32:03.781Z,25.10
2019-04-13T01:34:32.270Z,34.13
2019-04-13T01:37:00.972Z,25.83
2019-04-13T01:39:29.465Z,29.87
2019-04-13T01:41:57.938Z,24.50
2019-04-13T01:44:26.430Z,26.57
2019-04-13T01:46:54.897Z,25.17
2019-04-13T01:49:23.407Z,27.32
2019-04-13T01:51:51.880Z,27.77
2019-04-13T01:54:20.369Z,33.05
2019-04-13T01:56:48.834Z,27.57
2019-04-13T01:59:17.396Z,28.33
2019-04-13T02:02:05.362Z,33.67
2019-04-13T02:04:41.233Z,28.23
2019-04-13T02:07:27.380Z,28.13
2019-04-13T02:10:06.089Z,29.35
2019-04-13T02:12:34.560Z,30.17
2019-04-13T02:15:03.387Z,27.95
2019-04-13T02:17:31.927Z,31.55
2019-04-13T02:20:00.425Z,29.20
2019-04-13T02:22:28.898Z,26.93
2019-04-13T02:24:57.391Z,31.70
2019-04-13T02:27:25.868Z,29.57
2019-04-13T02:29:54.358Z,32.05
2019-04-13T02:32:22.823Z,32.55
2019-04-13T02:34:51.322Z,30.20
2019-04-13T02:37:19.788Z,31.67
2019-04-13T02:39:48.337Z,31.42
2019-04-13T02:42:17.556Z,33.20
2019-04-13T02:44:46.036Z,29.63
2019-04-13T02:47:14.510Z,30.73
2019-04-13T02:49:42.963Z,27.37
2019-04-13T02:52:11.456Z,28.43
2019-04-13T02:54:39.985Z,31.13
2019-04-13T02:57:08.497Z,31.03
2019-04-13T02:59:36.970Z,30.88
2019-04-13T03:02:05.475Z,26.80
2019-04-13T03:04:34.014Z,33.28
2019-04-13T03:07:02.579Z,33.30
2019-04-13T03:09:31.044Z,32.17
2019-04-13T03:11:59.535Z,29.93
2019-04-13T03:14:28.003Z,33.23
2019-04-13T03:17:12.981Z,33.17
2019-04-13T03:19:43.091Z,29.63
2019-04-13T03:22:11.590Z,34.83
2019-04-13T03:24:40.059Z,36.87
2019-04-13T03:27:08.601Z,30.32
2019-04-13T03:29:37.065Z,33.23
2019-04-13T03:32:05.642Z,31.40
2019-04-13T03:34:34.121Z,38.57
2019-04-13T03:37:02.614Z,31.12
2019-04-13T03:39:31.088Z,31.23
2019-04-13T03:41:59.595Z,35.67
2019-04-13T03:44:28.066Z,30.37
2019-04-13T03:46:56.566Z,34.80
2019-04-13T03:49:25.038Z,40.33
2019-04-13T03:51:53.605Z,38.73
2019-04-13T03:54:22.173Z,32.70
2019-04-13T03:56:51.029Z,31.70
2019-04-13T03:59:19.505Z,41.67
2019-04-13T04:01:48.041Z,37.13
2019-04-13T04:04:16.471Z,30.60
2019-04-13T04:06:44.976Z,34.07
2019-04-13T04:09:13.443Z,36.25
2019-04-13T04:11:41.941Z,35.83
2019-04-13T04:14:10.411Z,33.93
2019-04-13T04:16:38.914Z,34.20
2019-04-13T04:19:07.387Z,33.67
2019-04-13T04:21:35.873Z,34.60
2019-04-13T04:24:04.342Z,36.90
2019-04-13T04:26:32.847Z,30.67
2019-04-13T04:29:01.302Z,36.20
2019-04-13T04:31:29.804Z,32.23
2019-04-13T04:33:58.269Z,36.97
2019-04-13T04:36:26.778Z,35.60
2019-04-13T04:38:55.252Z,32.87
2019-04-13T04:41:23.714Z,34.23
2019-04-13T04:43:52.205Z,31.57
2019-04-13T04:46:20.673Z,34.27
2019-04-13T04:48:49.175Z,36.17
2019-04-13T04:51:17.710Z,35.30
2019-04-13T04:53:46.199Z,34.93
2019-04-13T04:56:14.666Z,33.93
2019-04-13T04:58:43.165Z,38.53
2019-04-13T05:01:11.624Z,34.80
2019-04-13T05:03:40.121Z,39.90
2019-04-13T05:06:08.591Z,33.07
2019-04-13T05:08:37.086Z,39.33
2019-04-13T05:11:05.553Z,36.70
2019-04-13T05:13:34.047Z,36.83
2019-04-13T05:16:02.512Z,35.43
2019-04-13T05:18:31.013Z,35.92
2019-04-13T05:20:59.474Z,34.50
2019-04-13T05:23:27.975Z,42.53
2019-04-13T05:25:56.437Z,36.50
2019-04-13T05:28:24.933Z,34.90
2019-04-13T05:30:53.402Z,43.48
2019-04-13T05:33:21.898Z,37.27
2019-04-13T05:35:50.367Z,38.50
2019-04-13T05:38:18.867Z,39.20
2019-04-13T05:40:47.331Z,35.70
2019-04-13T05:43:15.834Z,37.73
2019-04-13T05:45:44.298Z,38.63
2019-04-13T05:48:12.797Z,37.80
2019-04-13T05:50:41.258Z,37.43
2019-04-13T05:53:09.732Z,38.85
2019-04-13T05:55:38.225Z,38.33
2019-04-13T05:58:06.690Z,43.23
2019-04-13T06:00:35.265Z,40.20
2019-04-13T06:03:06.380Z,35.97
2019-04-13T06:05:33.872Z,34.97
2019-04-13T06:08:02.342Z,33.77
2019-04-13T06:10:30.838Z,37.00
2019-04-13T06:12:59.309Z,41.20
2019-04-13T06:15:27.799Z,63.93
2019-04-13T06:17:56.268Z,51.70
2019-04-13T06:20:24.766Z,45.20
2019-04-13T06:22:53.237Z,37.88
2019-04-13T06:25:28.790Z,38.23
2019-04-13T06:27:51.835Z,37.70
2019-04-13T06:30:31.050Z,40.83
2019-04-13T06:33:03.710Z,32.53
2019-04-13T06:35:32.207Z,37.38
2019-04-13T06:38:00.678Z,37.65
2019-04-13T06:40:29.177Z,41.35
2019-04-13T06:42:57.641Z,36.00
2019-04-13T06:45:26.127Z,37.70
2019-04-13T06:47:54.595Z,37.17
2019-04-13T06:50:23.090Z,42.17
2019-04-13T06:52:51.607Z,36.23
2019-04-13T06:55:20.054Z,38.05
2019-04-13T06:57:48.517Z,39.00
2019-04-13T07:00:17.019Z,36.40
2019-04-13T07:02:45.477Z,39.07
2019-04-13T07:05:13.979Z,37.67
2019-04-13T07:07:45.815Z,37.13
2019-04-13T07:10:43.580Z,33.15
2019-04-13T07:13:03.922Z,67.80
2019-04-13T07:15:46.245Z,45.12
2019-04-13T07:18:06.626Z,37.17
2019-04-13T07:20:35.132Z,36.77
2019-04-13T07:23:03.615Z,37.90
2019-04-13T07:25:33.401Z,37.47
2019-04-13T07:28:02.528Z,37.43
2019-04-13T07:30:30.962Z,42.73
2019-04-13T07:32:59.454Z,36.47
2019-04-13T07:35:27.942Z,36.00
2019-04-13T07:37:56.408Z,38.93
2019-04-13T07:40:24.908Z,37.93
2019-04-13T07:42:53.382Z,39.87
2019-04-13T07:45:29.066Z,46.83
2019-04-13T07:47:59.187Z,40.00
2019-04-13T07:50:44.374Z,40.40
2019-04-13T07:53:14.480Z,41.93
2019-04-13T07:55:42.974Z,39.40
2019-04-13T07:58:15.963Z,38.38
2019-04-13T08:00:45.891Z,37.40
2019-04-13T08:03:14.439Z,37.47
2019-04-13T08:05:42.939Z,37.10
2019-04-13T08:08:11.402Z,44.03
2019-04-13T08:10:39.918Z,34.73
2019-04-13T08:13:08.382Z,43.87
2019-04-13T08:15:36.899Z,38.47
2019-04-13T08:18:05.344Z,36.20
2019-04-13T08:20:34.668Z,34.97
2019-04-13T08:23:03.520Z,40.50
2019-04-13T08:25:36.792Z,40.80
2019-04-13T08:28:03.775Z,43.30
2019-04-13T08:30:35.763Z,38.57
2019-04-13T08:33:03.666Z,40.20
2019-04-13T08:35:32.123Z,41.02
2019-04-13T08:38:12.567Z,41.60
2019-04-13T08:40:30.731Z,41.07
2019-04-13T08:42:59.941Z,41.47
2019-04-13T08:45:28.460Z,40.15
2019-04-13T08:47:56.955Z,39.40
2019-04-13T08:50:25.423Z,42.03
2019-04-13T08:52:53.917Z,41.63
2019-04-13T08:55:22.393Z,36.85
2019-04-13T08:57:50.887Z,39.23
2019-04-13T09:00:19.359Z,40.70
2019-04-13T09:02:47.861Z,39.42
2019-04-13T09:05:16.340Z,47.43
2019-04-13T09:07:44.886Z,39.05
2019-04-13T09:10:16.568Z,42.38
2019-04-13T09:12:45.108Z,39.83
2019-04-13T09:15:14.753Z,43.70
2019-04-13T09:17:55.193Z,36.70
2019-04-13T09:20:36.929Z,36.53
2019-04-13T09:23:06.776Z,42.60
2019-04-13T09:25:35.404Z,39.40
2019-04-13T09:28:04.041Z,42.13
2019-04-13T09:30:34.218Z,42.63
2019-04-13T09:33:04.215Z,38.70
2019-04-13T09:35:32.859Z,40.43
2019-04-13T09:38:03.733Z,50.53
2019-04-13T09:40:31.534Z,49.50
2019-04-13T09:43:01.201Z,40.17
2019-04-13T09:45:34.305Z,38.13
2019-04-13T09:48:00.225Z,42.03
2019-04-13T09:50:28.683Z,46.87
2019-04-13T09:52:57.179Z,40.90
2019-04-13T09:55:25.650Z,44.23
2019-04-13T09:57:54.157Z,44.83
2019-04-13T10:00:22.700Z,43.10
2019-04-13T10:02:51.191Z,40.43
2019-04-13T10:05:19.659Z,43.05
2019-04-13T10:07:48.226Z,39.30
2019-04-13T10:10:16.697Z,43.08
2019-04-13T10:12:49.623Z,42.50
2019-04-13T10:15:31.850Z,41.85
2019-04-13T10:18:01.977Z,39.30
2019-04-13T10:20:30.454Z,42.25
2019-04-13T10:22:58.942Z,41.55
2019-04-13T10:25:27.406Z,42.90
2019-04-13T10:27:55.911Z,42.83
2019-04-13T10:30:24.379Z,36.42
2019-04-13T10:32:52.895Z,41.10
2019-04-13T10:35:21.362Z,33.88
2019-04-13T10:37:49.853Z,39.23
2019-04-13T10:40:18.317Z,42.83
2019-04-13T10:42:46.886Z,40.30
2019-04-13T10:45:19.726Z,44.53
2019-04-13T10:47:49.856Z,35.20
2019-04-13T10:50:34.119Z,46.60
2019-04-13T10:53:02.093Z,41.00
2019-04-13T10:55:31.041Z,39.50
2019-04-13T10:57:59.476Z,40.05
2019-04-13T11:00:28.244Z,39.43
2019-04-13T11:02:56.937Z,38.58
2019-04-13T11:05:25.400Z,42.80
2019-04-13T11:07:53.867Z,37.90
2019-04-13T11:10:22.368Z,41.88
2019-04-13T11:12:50.962Z,42.03
2019-04-13T11:15:20.632Z,46.92
2019-04-13T11:17:49.108Z,47.35
2019-04-13T11:20:17.741Z,48.23
2019-04-13T11:22:46.212Z,43.35
2019-04-13T11:25:14.990Z,42.03
2019-04-13T11:27:43.470Z,39.63
2019-04-13T11:30:12.264Z,46.25
2019-04-13T11:32:40.804Z,86.55
2019-04-13T11:35:09.366Z,43.02
2019-04-13T11:37:37.827Z,39.70
2019-04-13T11:40:07.735Z,45.10
2019-04-13T11:42:37.841Z,41.63
2019-04-13T11:45:25.170Z,39.60
2019-04-13T11:48:11.252Z,44.08
2019-04-13T11:50:41.390Z,38.30
2019-04-13T11:53:09.855Z,37.95
2019-04-13T11:55:38.351Z,43.20
2019-04-13T11:58:06.819Z,41.70
2019-04-13T12:00:42.701Z,44.70
2019-04-13T12:03:30.492Z,44.27
2019-04-13T12:06:09.528Z,45.30
2019-04-13T12:08:39.638Z,43.07
2019-04-13T12:11:25.775Z,44.58
2019-04-13T12:13:55.884Z,44.23
2019-04-13T12:16:28.702Z,43.67
2019-04-13T12:19:04.486Z,42.40
2019-04-13T12:21:50.368Z,44.07
2019-04-13T12:24:22.941Z,47.40
2019-04-13T12:26:51.435Z,40.80
2019-04-13T12:29:19.904Z,39.40
2019-04-13T12:31:48.470Z,46.77
2019-04-13T12:34:16.934Z,46.73
2019-04-13T12:36:45.435Z,43.17
2019-04-13T12:39:13.920Z,45.05
2019-04-13T12:41:56.016Z,48.30
2019-04-13T12:44:36.548Z,47.07
2019-04-13T12:46:54.626Z,45.47
2019-04-13T12:49:23.121Z,44.67
2019-04-13T12:51:51.591Z,47.43
2019-04-13T12:54:20.060Z,46.20
2019-04-13T12:56:48.562Z,47.83
2019-04-13T12:59:17.090Z,44.90
2019-04-13T13:01:47.242Z,43.00
2019-04-13T13:04:15.775Z,45.40
2019-04-13T13:06:44.275Z,50.23
2019-04-13T13:09:14.112Z,47.40
2019-04-13T13:11:43.666Z,45.73
2019-04-13T13:14:12.802Z,46.77
2019-04-13T13:16:41.301Z,49.90
2019-04-13T13:19:09.765Z,50.23
2019-04-13T13:21:38.530Z,53.00
2019-04-13T13:24:07.098Z,48.07
2019-04-13T13:26:47.582Z,47.77
2019-04-13T13:29:05.782Z,50.53
2019-04-13T13:31:34.223Z,53.93
2019-04-13T13:34:02.697Z,49.37
2019-04-13T13:36:31.202Z,48.80
2019-04-13T13:38:59.670Z,47.40
2019-04-13T13:41:28.264Z,48.43
2019-04-13T13:43:56.739Z,46.03
2019-04-13T13:46:25.233Z,49.98
2019-04-13T13:48:53.705Z,50.30
2019-04-13T13:51:22.205Z,48.33
2019-04-13T13:53:50.666Z,49.00
2019-04-13T13:56:19.256Z,46.83
2019-04-13T13:58:55.679Z,50.52
2019-04-13T14:01:28.796Z,51.33
2019-04-13T14:03:57.252Z,53.13
2019-04-13T14:06:25.759Z,50.50
2019-04-13T14:08:54.295Z,59.60
2019-04-13T14:11:23.095Z,58.90
2019-04-13T14:13:51.638Z,43.87
2019-04-13T14:16:20.288Z,46.10
2019-04-13T14:18:48.768Z,47.20
2019-04-13T14:21:17.232Z,45.40
2019-04-13T14:23:46.525Z,47.90
2019-04-13T14:26:15.091Z,47.47
2019-04-13T14:28:43.738Z,47.80
2019-04-13T14:31:12.182Z,47.27
2019-04-13T14:33:40.686Z,44.63
2019-04-13T14:36:09.236Z,46.13
2019-04-13T14:38:38.030Z,48.68
2019-04-13T14:41:09.532Z,44.45
2019-04-13T14:43:40.240Z,46.05
2019-04-13T14:46:10.053Z,44.50
2019-04-13T14:48:39.090Z,42.60
2019-04-13T14:51:07.792Z,45.00
2019-04-13T14:53:37.258Z,41.43
2019-04-13T14:56:06.199Z,45.80
2019-04-13T14:58:34.703Z,48.60
2019-04-13T15:01:03.176Z,47.07
2019-04-13T15:03:31.687Z,42.37
2019-04-13T15:06:00.151Z,51.20
2019-04-13T15:08:28.643Z,48.73
2019-04-13T15:11:15.606Z,47.83
2019-04-13T15:13:27.454Z,57.33
2019-04-13T15:15:56.851Z,46.03
2019-04-13T15:18:26.971Z,49.15
2019-04-13T15:20:58.323Z,50.95
2019-04-13T15:23:25.712Z,50.58
2019-04-13T15:25:55.014Z,62.50
2019-04-13T15:28:23.452Z,61.23
2019-04-13T15:30:54.658Z,62.20
2019-04-13T15:33:22.392Z,50.40
2019-04-13T15:35:56.996Z,52.33
2019-04-13T15:38:23.787Z,88.13
2019-04-13T15:40:56.213Z,50.63
2019-04-13T15:43:28.556Z,54.10
2019-04-13T15:45:52.549Z,56.67
2019-04-13T15:48:22.494Z,52.40
2019-04-13T15:50:51.086Z,50.23
2019-04-13T15:53:20.335Z,48.60
2019-04-13T15:55:48.862Z,55.83
2019-04-13T15:58:18.508Z,51.25
2019-04-13T16:00:48.467Z,52.90
2019-04-13T16:03:17.189Z,57.50
2019-04-13T16:05:45.650Z,56.55
2019-04-13T16:08:14.146Z,54.57
2019-04-13T16:10:59.517Z,47.73
2019-04-13T16:13:28.386Z,50.47
2019-04-13T16:16:03.025Z,50.27
2019-04-13T16:18:32.558Z,49.60
2019-04-13T16:21:02.073Z,55.20
2019-04-13T16:23:30.730Z,61.30
2019-04-13T16:25:59.457Z,56.03
2019-04-13T16:28:30.756Z,52.75
2019-04-13T16:31:03.295Z,60.85
2019-04-13T16:33:49.905Z,65.33
2019-04-13T16:36:35.793Z,53.80
2019-04-13T16:39:11.793Z,57.70
2019-04-13T16:41:36.111Z,56.10
2019-04-13T16:44:06.311Z,61.43
2019-04-13T16:46:38.866Z,61.03
2019-04-13T16:49:20.685Z,69.23
2019-04-13T16:51:47.739Z,68.20
2019-04-13T16:54:21.177Z,58.83
2019-04-13T16:56:56.848Z,186.30
2019-04-13T16:59:43.343Z,228.03
2019-04-13T17:02:13.476Z,63.07
2019-04-13T17:04:44.399Z,65.35
2019-04-13T17:07:13.305Z,73.27
2019-04-13T17:09:41.873Z,73.43
2019-04-13T17:12:19.352Z,87.30
2019-04-13T17:14:41.357Z,67.23
2019-04-13T17:17:09.907Z,80.37
2019-04-13T17:19:42.765Z,79.93
2019-04-13T17:22:21.885Z,68.60
2019-04-13T17:25:10.790Z,56.48
2019-04-13T17:28:01.067Z,58.15
2019-04-13T17:30:21.851Z,56.63
2019-04-13T17:33:02.001Z,60.92
2019-04-13T17:35:30.923Z,55.15
2019-04-13T17:37:59.486Z,54.10
2019-04-13T17:40:30.488Z,59.20
2019-04-13T17:43:04.045Z,53.40
2019-04-13T17:45:37.640Z,54.53
2019-04-13T17:48:08.215Z,62.20
2019-04-13T17:50:41.002Z,55.70
2019-04-13T17:53:11.596Z,61.87
2019-04-13T17:55:42.045Z,60.50
2019-04-13T17:58:12.508Z,61.27
2019-04-13T18:00:45.771Z,52.63
2019-04-13T18:03:31.094Z,53.97
2019-04-13T18:06:01.257Z,59.90
2019-04-13T18:08:48.861Z,57.17
2019-04-13T18:11:31.953Z,54.87
2019-04-13T18:14:03.360Z,64.62
2019-04-13T18:16:34.311Z,54.60
2019-04-13T18:19:04.806Z,56.47
2019-04-13T18:21:34.773Z,52.53
2019-04-13T18:24:03.755Z,54.63
2019-04-13T18:26:33.566Z,54.83
2019-04-13T18:29:03.147Z,52.70
2019-04-13T18:31:31.856Z,52.67
2019-04-13T18:34:00.311Z,60.27
2019-04-13T18:36:29.868Z,58.42
2019-04-13T18:38:58.482Z,54.37
2019-04-13T18:41:27.066Z,51.07
2019-04-13T18:43:56.397Z,61.57
2019-04-13T18:46:25.100Z,53.90
2019-04-13T18:48:53.569Z,58.97
2019-04-13T18:51:23.307Z,60.78
2019-04-13T18:53:52.839Z,57.97
2019-04-13T18:56:21.437Z,62.00
2019-04-13T18:58:50.145Z,53.90
2019-04-13T19:01:20.695Z,55.30
2019-04-13T19:03:48.714Z,51.13
2019-04-13T19:06:26.570Z,51.37
2019-04-13T19:08:47.323Z,52.90
2019-04-13T19:11:15.792Z,49.90
2019-04-13T19:13:44.292Z,53.37
2019-04-13T19:16:12.749Z,51.83
2019-04-13T19:18:41.273Z,53.20
2019-04-13T19:21:09.746Z,50.33
2019-04-13T19:23:38.237Z,51.00
2019-04-13T19:26:06.704Z,52.50
2019-04-13T19:28:35.203Z,54.13
2019-04-13T19:31:03.669Z,50.67
2019-04-13T19:33:32.165Z,49.70
2019-04-13T19:36:00.635Z,55.90
2019-04-13T19:38:29.124Z,51.07
2019-04-13T19:40:57.622Z,50.40
2019-04-13T19:43:26.131Z,52.00
2019-04-13T19:45:54.595Z,49.10
2019-04-13T19:48:23.091Z,48.27
2019-04-13T19:50:51.559Z,50.13
2019-04-13T19:53:37.771Z,57.17
2019-04-13T19:56:07.869Z,50.33
2019-04-13T19:58:36.433Z,58.53
2019-04-13T20:01:04.900Z,48.37
2019-04-13T20:03:33.396Z,55.00
2019-04-13T20:06:04.344Z,55.80
2019-04-13T20:08:32.000Z,52.90
2019-04-13T20:11:00.470Z,60.30
2019-04-13T20:13:40.264Z,58.10
2019-04-13T20:15:59.398Z,46.75
2019-04-13T20:18:28.305Z,54.53
2019-04-13T20:20:56.887Z,53.00
2019-04-13T20:23:25.382Z,51.00
2019-04-13T20:25:54.712Z,55.90
2019-04-13T20:28:24.333Z,54.27
2019-04-13T20:30:56.139Z,53.90
2019-04-13T20:33:24.189Z,59.60
2019-04-13T20:36:02.436Z,58.73
2019-04-13T20:38:23.662Z,58.67
2019-04-13T20:41:10.529Z,50.50
2019-04-13T20:43:48.677Z,53.17
2019-04-13T20:46:10.364Z,54.40
2019-04-13T20:48:39.988Z,53.85
2019-04-13T20:51:08.617Z,55.93
2019-04-13T20:53:37.127Z,51.08
2019-04-13T20:56:05.766Z,55.10
2019-04-13T20:58:34.206Z,59.55
2019-04-13T21:01:03.614Z,56.60
2019-04-13T21:03:32.212Z,52.62
2019-04-13T21:06:00.784Z,51.70
2019-04-13T21:08:30.172Z,53.15
2019-04-13T21:10:58.645Z,51.13
2019-04-13T21:13:27.541Z,51.60
2019-04-13T21:15:56.017Z,51.30
2019-04-13T21:18:25.448Z,51.92
2019-04-13T21:20:53.976Z,47.67
2019-04-13T21:23:23.495Z,52.63
2019-04-13T21:25:53.096Z,52.47
2019-04-13T21:28:21.696Z,57.23
2019-04-13T21:30:51.083Z,51.33
2019-04-13T21:33:19.565Z,55.37
2019-04-13T21:35:49.160Z,48.07
2019-04-13T21:38:17.630Z,51.20
2019-04-13T21:40:46.917Z,48.23
2019-04-13T21:43:15.391Z,53.70
2019-04-13T21:45:44.933Z,47.43
2019-04-13T21:48:13.450Z,50.90
2019-04-13T21:50:46.011Z,52.40
2019-04-13T21:53:16.090Z,49.70
2019-04-13T21:55:46.118Z,52.83
2019-04-13T21:58:14.627Z,53.13
2019-04-13T22:01:24.060Z,55.03
2019-04-13T22:03:53.372Z,51.63
2019-04-13T22:06:21.826Z,46.90
2019-04-13T22:08:51.286Z,53.03
2019-04-13T22:11:21.098Z,55.37
2019-04-13T22:13:49.656Z,55.00
2019-04-13T22:16:18.999Z,55.80
2019-04-13T22:18:47.583Z,58.70
2019-04-13T22:21:16.017Z,48.50
2019-04-13T22:23:45.395Z,50.20
2019-04-13T22:26:13.887Z,66.53
2019-04-13T22:28:45.270Z,61.53
2019-04-13T22:31:31.004Z,60.25
2019-04-13T22:34:31.954Z,59.03
2019-04-13T22:37:01.591Z,62.10
2019-04-13T22:39:31.293Z,62.07
2019-04-13T22:41:59.927Z,55.67
2019-04-13T22:44:39.529Z,54.42
2019-04-13T22:46:59.512Z,55.50
2019-04-13T22:49:32.471Z,58.07
2019-04-13T22:52:06.145Z,58.83
2019-04-13T22:54:43.030Z,54.33
2019-04-13T22:57:31.442Z,56.13
2019-04-13T23:00:02.091Z,59.18
2019-04-13T23:02:49.579Z,59.67
2019-04-13T23:05:18.313Z,58.78
2019-04-13T23:07:47.869Z,57.80
2019-04-13T23:10:16.549Z,55.50
2019-04-13T23:12:46.401Z,57.35
2019-04-13T23:15:22.448Z,60.03
2019-04-13T23:17:46.291Z,51.13
2019-04-13T23:20:15.035Z,61.55
2019-04-13T23:22:43.526Z,58.78
2019-04-13T23:25:12.070Z,53.33
2019-04-13T23:27:41.605Z,56.15
2019-04-13T23:30:11.671Z,58.83
2019-04-13T23:32:40.230Z,55.58
2019-04-13T23:35:08.805Z,53.38
2019-04-13T23:37:37.298Z,58.23
2019-04-13T23:40:07.156Z,58.15
2019-04-13T23:42:35.694Z,58.02
2019-04-13T23:45:17.231Z,58.13
2019-04-13T23:47:38.778Z,61.68
2019-04-13T23:50:09.042Z,60.90
2019-04-13T23:52:37.680Z,58.10
2019-04-13T23:55:07.543Z,58.85
2019-04-13T23:57:55.618Z,61.48
